sensor_id;sensor_type;location;lat;lon;timestamp;P1;durP1;ratioP1;P2;durP2;ratioP2
66327;SDS011;53133;52.862;6.602;2022-07-18T00:00:06;7.97;;;5.28;;
66327;SDS011;53133;52.862;6.602;2022-07-18T00:02:33;7.38;;;5.72;;
66327;SDS011;53133;52.862;6.602;2022-07-18T00:04:58;6.57;;;4.97;;
66327;SDS011;53133;52.862;6.602;2022-07-18T00:07:24;7.53;;;5.05;;
66327;SDS011;53133;52.862;6.602;2022-07-18T00:09:50;8.32;;;6.00;;
66327;SDS011;53133;52.862;6.602;2022-07-18T00:12:16;8.52;;;5.50;;
66327;SDS011;53133;52.862;6.602;2022-07-18T00:14:42;7.68;;;5.80;;
66327;SDS011;53133;52.862;6.602;2022-07-18T00:17:07;9.65;;;5.55;;
66327;SDS011;53133;52.862;6.602;2022-07-18T00:19:34;7.72;;;5.93;;
66327;SDS011;53133;52.862;6.602;2022-07-18T00:22:00;9.10;;;6.28;;
66327;SDS011;53133;52.862;6.602;2022-07-18T00:24:27;8.40;;;5.68;;
66327;SDS011;53133;52.862;6.602;2022-07-18T00:26:52;7.03;;;5.60;;
66327;SDS011;53133;52.862;6.602;2022-07-18T00:29:18;7.20;;;5.55;;
66327;SDS011;53133;52.862;6.602;2022-07-18T00:31:44;8.38;;;5.70;;
66327;SDS011;53133;52.862;6.602;2022-07-18T00:34:09;7.03;;;5.35;;
66327;SDS011;53133;52.862;6.602;2022-07-18T00:36:35;6.38;;;5.20;;
66327;SDS011;53133;52.862;6.602;2022-07-18T00:39:00;7.45;;;5.03;;
66327;SDS011;53133;52.862;6.602;2022-07-18T00:41:26;7.95;;;5.75;;
66327;SDS011;53133;52.862;6.602;2022-07-18T00:43:52;6.85;;;5.60;;
66327;SDS011;53133;52.862;6.602;2022-07-18T00:46:24;8.10;;;5.70;;
66327;SDS011;53133;52.862;6.602;2022-07-18T00:48:51;6.85;;;5.40;;
66327;SDS011;53133;52.862;6.602;2022-07-18T00:51:17;8.50;;;5.45;;
66327;SDS011;53133;52.862;6.602;2022-07-18T00:53:44;8.43;;;5.43;;
66327;SDS011;53133;52.862;6.602;2022-07-18T00:56:10;7.22;;;5.10;;
66327;SDS011;53133;52.862;6.602;2022-07-18T00:58:37;8.98;;;5.40;;
66327;SDS011;53133;52.862;6.602;2022-07-18T01:01:03;7.93;;;5.43;;
66327;SDS011;53133;52.862;6.602;2022-07-18T01:03:47;8.55;;;5.55;;
66327;SDS011;53133;52.862;6.602;2022-07-18T01:06:13;6.45;;;5.07;;
66327;SDS011;53133;52.862;6.602;2022-07-18T01:08:39;8.32;;;5.22;;
66327;SDS011;53133;52.862;6.602;2022-07-18T01:11:07;8.10;;;5.22;;
66327;SDS011;53133;52.862;6.602;2022-07-18T01:13:33;8.57;;;5.38;;
66327;SDS011;53133;52.862;6.602;2022-07-18T01:15:58;7.63;;;5.60;;
66327;SDS011;53133;52.862;6.602;2022-07-18T01:18:24;8.55;;;6.13;;
66327;SDS011;53133;52.862;6.602;2022-07-18T01:20:50;6.70;;;5.88;;
66327;SDS011;53133;52.862;6.602;2022-07-18T01:23:15;8.57;;;5.43;;
66327;SDS011;53133;52.862;6.602;2022-07-18T01:25:41;7.68;;;5.47;;
66327;SDS011;53133;52.862;6.602;2022-07-18T01:28:06;8.88;;;6.18;;
66327;SDS011;53133;52.862;6.602;2022-07-18T01:30:32;8.52;;;6.20;;
66327;SDS011;53133;52.862;6.602;2022-07-18T01:32:59;7.57;;;6.22;;
66327;SDS011;53133;52.862;6.602;2022-07-18T01:35:27;10.13;;;6.45;;
66327;SDS011;53133;52.862;6.602;2022-07-18T01:37:54;9.65;;;6.15;;
66327;SDS011;53133;52.862;6.602;2022-07-18T01:40:22;8.63;;;5.97;;
66327;SDS011;53133;52.862;6.602;2022-07-18T01:42:48;8.13;;;6.30;;
66327;SDS011;53133;52.862;6.602;2022-07-18T01:45:14;10.93;;;6.72;;
66327;SDS011;53133;52.862;6.602;2022-07-18T01:47:40;8.63;;;6.05;;
66327;SDS011;53133;52.862;6.602;2022-07-18T01:50:07;7.68;;;5.88;;
66327;SDS011;53133;52.862;6.602;2022-07-18T01:52:34;8.95;;;5.72;;
66327;SDS011;53133;52.862;6.602;2022-07-18T01:54:59;9.18;;;6.30;;
66327;SDS011;53133;52.862;6.602;2022-07-18T01:57:25;9.00;;;6.40;;
66327;SDS011;53133;52.862;6.602;2022-07-18T01:59:51;11.57;;;6.93;;
66327;SDS011;53133;52.862;6.602;2022-07-18T02:02:17;8.05;;;6.10;;
66327;SDS011;53133;52.862;6.602;2022-07-18T02:04:42;9.40;;;6.90;;
66327;SDS011;53133;52.862;6.602;2022-07-18T02:07:32;10.00;;;6.22;;
66327;SDS011;53133;52.862;6.602;2022-07-18T02:10:00;7.90;;;6.05;;
66327;SDS011;53133;52.862;6.602;2022-07-18T02:12:28;7.95;;;5.85;;
66327;SDS011;53133;52.862;6.602;2022-07-18T02:14:54;11.27;;;6.55;;
66327;SDS011;53133;52.862;6.602;2022-07-18T02:17:19;8.10;;;6.20;;
66327;SDS011;53133;52.862;6.602;2022-07-18T02:19:45;12.05;;;6.53;;
66327;SDS011;53133;52.862;6.602;2022-07-18T02:22:11;9.85;;;6.65;;
66327;SDS011;53133;52.862;6.602;2022-07-18T02:24:37;9.30;;;6.10;;
66327;SDS011;53133;52.862;6.602;2022-07-18T02:27:02;9.32;;;6.55;;
66327;SDS011;53133;52.862;6.602;2022-07-18T02:29:29;9.15;;;5.95;;
66327;SDS011;53133;52.862;6.602;2022-07-18T02:31:55;9.57;;;6.63;;
66327;SDS011;53133;52.862;6.602;2022-07-18T02:34:21;9.75;;;6.15;;
66327;SDS011;53133;52.862;6.602;2022-07-18T02:36:46;10.13;;;6.40;;
66327;SDS011;53133;52.862;6.602;2022-07-18T02:39:14;8.95;;;6.30;;
66327;SDS011;53133;52.862;6.602;2022-07-18T02:41:39;8.60;;;6.60;;
66327;SDS011;53133;52.862;6.602;2022-07-18T02:44:05;8.35;;;5.90;;
66327;SDS011;53133;52.862;6.602;2022-07-18T02:46:31;10.23;;;6.53;;
66327;SDS011;53133;52.862;6.602;2022-07-18T02:48:56;10.75;;;6.82;;
66327;SDS011;53133;52.862;6.602;2022-07-18T02:51:22;8.65;;;6.38;;
66327;SDS011;53133;52.862;6.602;2022-07-18T02:53:47;8.95;;;6.95;;
66327;SDS011;53133;52.862;6.602;2022-07-18T02:56:13;9.60;;;6.30;;
66327;SDS011;53133;52.862;6.602;2022-07-18T02:58:38;10.10;;;6.53;;
66327;SDS011;53133;52.862;6.602;2022-07-18T03:01:04;10.25;;;7.10;;
66327;SDS011;53133;52.862;6.602;2022-07-18T03:03:29;8.82;;;6.70;;
66327;SDS011;53133;52.862;6.602;2022-07-18T03:05:55;9.80;;;7.22;;
66327;SDS011;53133;52.862;6.602;2022-07-18T03:08:21;13.05;;;7.25;;
66327;SDS011;53133;52.862;6.602;2022-07-18T03:10:46;11.18;;;7.13;;
66327;SDS011;53133;52.862;6.602;2022-07-18T03:13:12;9.88;;;7.13;;
66327;SDS011;53133;52.862;6.602;2022-07-18T03:15:38;10.52;;;7.07;;
66327;SDS011;53133;52.862;6.602;2022-07-18T03:18:04;10.27;;;7.68;;
66327;SDS011;53133;52.862;6.602;2022-07-18T03:20:30;11.27;;;7.95;;
66327;SDS011;53133;52.862;6.602;2022-07-18T03:22:55;12.75;;;7.60;;
66327;SDS011;53133;52.862;6.602;2022-07-18T03:25:21;11.07;;;7.93;;
66327;SDS011;53133;52.862;6.602;2022-07-18T03:27:47;9.30;;;7.53;;
66327;SDS011;53133;52.862;6.602;2022-07-18T03:30:13;12.85;;;7.57;;
66327;SDS011;53133;52.862;6.602;2022-07-18T03:32:39;10.30;;;7.03;;
66327;SDS011;53133;52.862;6.602;2022-07-18T03:35:04;9.73;;;7.03;;
66327;SDS011;53133;52.862;6.602;2022-07-18T03:37:31;9.75;;;7.32;;
66327;SDS011;53133;52.862;6.602;2022-07-18T03:39:56;12.20;;;7.05;;
66327;SDS011;53133;52.862;6.602;2022-07-18T03:42:22;12.40;;;7.82;;
66327;SDS011;53133;52.862;6.602;2022-07-18T03:44:47;9.25;;;6.97;;
66327;SDS011;53133;52.862;6.602;2022-07-18T03:47:13;11.40;;;7.65;;
66327;SDS011;53133;52.862;6.602;2022-07-18T03:49:39;8.93;;;7.32;;
66327;SDS011;53133;52.862;6.602;2022-07-18T03:52:04;9.80;;;7.22;;
66327;SDS011;53133;52.862;6.602;2022-07-18T03:54:30;10.07;;;7.50;;
66327;SDS011;53133;52.862;6.602;2022-07-18T03:56:56;10.57;;;6.95;;
66327;SDS011;53133;52.862;6.602;2022-07-18T03:59:21;13.57;;;8.05;;
66327;SDS011;53133;52.862;6.602;2022-07-18T04:01:47;10.82;;;7.40;;
66327;SDS011;53133;52.862;6.602;2022-07-18T04:04:12;11.10;;;7.63;;
66327;SDS011;53133;52.862;6.602;2022-07-18T04:06:38;12.18;;;8.13;;
66327;SDS011;53133;52.862;6.602;2022-07-18T04:09:04;11.68;;;7.85;;
66327;SDS011;53133;52.862;6.602;2022-07-18T04:11:30;9.90;;;7.53;;
66327;SDS011;53133;52.862;6.602;2022-07-18T04:13:56;12.10;;;8.02;;
66327;SDS011;53133;52.862;6.602;2022-07-18T04:16:21;12.23;;;7.68;;
66327;SDS011;53133;52.862;6.602;2022-07-18T04:18:47;10.82;;;8.02;;
66327;SDS011;53133;52.862;6.602;2022-07-18T04:21:13;11.95;;;7.97;;
66327;SDS011;53133;52.862;6.602;2022-07-18T04:23:39;11.43;;;7.72;;
66327;SDS011;53133;52.862;6.602;2022-07-18T04:26:05;13.52;;;8.15;;
66327;SDS011;53133;52.862;6.602;2022-07-18T04:28:31;13.30;;;7.47;;
66327;SDS011;53133;52.862;6.602;2022-07-18T04:30:57;11.60;;;8.27;;
66327;SDS011;53133;52.862;6.602;2022-07-18T04:33:22;10.90;;;8.18;;
66327;SDS011;53133;52.862;6.602;2022-07-18T04:35:48;10.75;;;7.85;;
66327;SDS011;53133;52.862;6.602;2022-07-18T04:38:14;14.82;;;8.68;;
66327;SDS011;53133;52.862;6.602;2022-07-18T04:40:40;14.55;;;8.30;;
66327;SDS011;53133;52.862;6.602;2022-07-18T04:43:05;15.63;;;9.25;;
66327;SDS011;53133;52.862;6.602;2022-07-18T04:45:31;14.25;;;8.63;;
66327;SDS011;53133;52.862;6.602;2022-07-18T04:47:57;12.50;;;7.95;;
66327;SDS011;53133;52.862;6.602;2022-07-18T04:50:24;12.98;;;7.68;;
66327;SDS011;53133;52.862;6.602;2022-07-18T04:52:50;12.57;;;7.93;;
66327;SDS011;53133;52.862;6.602;2022-07-18T04:55:16;12.13;;;7.70;;
66327;SDS011;53133;52.862;6.602;2022-07-18T04:57:43;12.02;;;7.82;;
66327;SDS011;53133;52.862;6.602;2022-07-18T05:00:10;13.68;;;8.18;;
66327;SDS011;53133;52.862;6.602;2022-07-18T05:02:38;11.13;;;7.88;;
66327;SDS011;53133;52.862;6.602;2022-07-18T05:05:08;11.90;;;8.50;;
66327;SDS011;53133;52.862;6.602;2022-07-18T05:07:35;12.90;;;8.68;;
66327;SDS011;53133;52.862;6.602;2022-07-18T05:10:01;11.65;;;8.18;;
66327;SDS011;53133;52.862;6.602;2022-07-18T05:12:29;11.65;;;8.40;;
66327;SDS011;53133;52.862;6.602;2022-07-18T05:14:54;14.93;;;8.60;;
66327;SDS011;53133;52.862;6.602;2022-07-18T05:17:20;11.60;;;8.60;;
66327;SDS011;53133;52.862;6.602;2022-07-18T05:19:45;12.73;;;8.25;;
66327;SDS011;53133;52.862;6.602;2022-07-18T05:22:11;14.63;;;8.20;;
66327;SDS011;53133;52.862;6.602;2022-07-18T05:24:37;10.57;;;7.13;;
66327;SDS011;53133;52.862;6.602;2022-07-18T05:27:02;13.73;;;7.35;;
66327;SDS011;53133;52.862;6.602;2022-07-18T05:29:28;10.55;;;6.38;;
66327;SDS011;53133;52.862;6.602;2022-07-18T05:31:53;10.70;;;6.93;;
66327;SDS011;53133;52.862;6.602;2022-07-18T05:34:19;11.20;;;6.78;;
66327;SDS011;53133;52.862;6.602;2022-07-18T05:36:45;11.15;;;7.00;;
66327;SDS011;53133;52.862;6.602;2022-07-18T05:39:10;10.18;;;7.13;;
66327;SDS011;53133;52.862;6.602;2022-07-18T05:41:36;12.48;;;6.90;;
66327;SDS011;53133;52.862;6.602;2022-07-18T05:44:01;10.68;;;6.72;;
66327;SDS011;53133;52.862;6.602;2022-07-18T05:46:27;10.45;;;6.70;;
66327;SDS011;53133;52.862;6.602;2022-07-18T05:48:52;12.05;;;6.18;;
66327;SDS011;53133;52.862;6.602;2022-07-18T05:51:19;9.65;;;6.22;;
66327;SDS011;53133;52.862;6.602;2022-07-18T05:53:45;11.73;;;6.38;;
66327;SDS011;53133;52.862;6.602;2022-07-18T05:56:11;12.18;;;6.78;;
66327;SDS011;53133;52.862;6.602;2022-07-18T05:58:37;11.68;;;5.93;;
66327;SDS011;53133;52.862;6.602;2022-07-18T06:01:02;14.23;;;5.75;;
66327;SDS011;53133;52.862;6.602;2022-07-18T06:03:28;12.13;;;6.28;;
66327;SDS011;53133;52.862;6.602;2022-07-18T06:05:54;13.05;;;5.57;;
66327;SDS011;53133;52.862;6.602;2022-07-18T06:08:19;8.93;;;6.15;;
66327;SDS011;53133;52.862;6.602;2022-07-18T06:10:45;8.88;;;5.63;;
66327;SDS011;53133;52.862;6.602;2022-07-18T06:13:10;10.35;;;5.70;;
66327;SDS011;53133;52.862;6.602;2022-07-18T06:15:36;10.30;;;5.63;;
66327;SDS011;53133;52.862;6.602;2022-07-18T06:18:01;11.52;;;5.97;;
66327;SDS011;53133;52.862;6.602;2022-07-18T06:20:27;11.52;;;5.65;;
66327;SDS011;53133;52.862;6.602;2022-07-18T06:22:53;9.90;;;5.95;;
66327;SDS011;53133;52.862;6.602;2022-07-18T06:25:18;11.45;;;5.35;;
66327;SDS011;53133;52.862;6.602;2022-07-18T06:27:44;8.98;;;5.38;;
66327;SDS011;53133;52.862;6.602;2022-07-18T06:30:09;9.23;;;5.20;;
66327;SDS011;53133;52.862;6.602;2022-07-18T06:32:36;7.28;;;4.72;;
66327;SDS011;53133;52.862;6.602;2022-07-18T06:35:02;11.20;;;5.50;;
66327;SDS011;53133;52.862;6.602;2022-07-18T06:37:28;8.27;;;4.28;;
66327;SDS011;53133;52.862;6.602;2022-07-18T06:39:53;9.40;;;4.90;;
66327;SDS011;53133;52.862;6.602;2022-07-18T06:42:19;10.43;;;5.13;;
66327;SDS011;53133;52.862;6.602;2022-07-18T06:44:45;7.93;;;5.80;;
66327;SDS011;53133;52.862;6.602;2022-07-18T06:47:10;13.43;;;5.60;;
66327;SDS011;53133;52.862;6.602;2022-07-18T06:49:36;11.05;;;5.43;;
66327;SDS011;53133;52.862;6.602;2022-07-18T06:52:01;9.45;;;4.90;;
66327;SDS011;53133;52.862;6.602;2022-07-18T06:54:27;7.30;;;4.82;;
66327;SDS011;53133;52.862;6.602;2022-07-18T06:56:53;9.02;;;5.15;;
66327;SDS011;53133;52.862;6.602;2022-07-18T06:59:19;8.68;;;4.97;;
66327;SDS011;53133;52.862;6.602;2022-07-18T07:01:45;10.07;;;5.25;;
66327;SDS011;53133;52.862;6.602;2022-07-18T07:04:11;7.88;;;4.90;;
66327;SDS011;53133;52.862;6.602;2022-07-18T07:06:36;8.68;;;4.90;;
66327;SDS011;53133;52.862;6.602;2022-07-18T07:09:03;9.40;;;4.90;;
66327;SDS011;53133;52.862;6.602;2022-07-18T07:11:30;7.05;;;4.35;;
66327;SDS011;53133;52.862;6.602;2022-07-18T07:13:56;11.23;;;4.50;;
66327;SDS011;53133;52.862;6.602;2022-07-18T07:16:21;6.32;;;4.28;;
66327;SDS011;53133;52.862;6.602;2022-07-18T07:18:47;9.13;;;4.63;;
66327;SDS011;53133;52.862;6.602;2022-07-18T07:21:13;9.85;;;4.25;;
66327;SDS011;53133;52.862;6.602;2022-07-18T07:23:38;9.68;;;4.55;;
66327;SDS011;53133;52.862;6.602;2022-07-18T07:26:06;8.32;;;3.85;;
66327;SDS011;53133;52.862;6.602;2022-07-18T07:28:32;7.55;;;4.13;;
66327;SDS011;53133;52.862;6.602;2022-07-18T07:30:57;7.53;;;3.95;;
66327;SDS011;53133;52.862;6.602;2022-07-18T07:33:23;7.95;;;3.15;;
66327;SDS011;53133;52.862;6.602;2022-07-18T07:35:48;10.77;;;3.60;;
66327;SDS011;53133;52.862;6.602;2022-07-18T07:38:14;6.75;;;3.30;;
66327;SDS011;53133;52.862;6.602;2022-07-18T07:40:44;5.13;;;2.88;;
66327;SDS011;53133;52.862;6.602;2022-07-18T07:43:11;4.28;;;3.10;;
66327;SDS011;53133;52.862;6.602;2022-07-18T07:45:39;5.75;;;3.30;;
66327;SDS011;53133;52.862;6.602;2022-07-18T07:48:06;6.55;;;3.20;;
66327;SDS011;53133;52.862;6.602;2022-07-18T07:50:32;7.78;;;3.15;;
66327;SDS011;53133;52.862;6.602;2022-07-18T07:52:58;5.00;;;2.88;;
66327;SDS011;53133;52.862;6.602;2022-07-18T07:55:24;4.93;;;3.33;;
66327;SDS011;53133;52.862;6.602;2022-07-18T07:57:51;7.55;;;3.50;;
66327;SDS011;53133;52.862;6.602;2022-07-18T08:00:17;6.88;;;3.15;;
66327;SDS011;53133;52.862;6.602;2022-07-18T08:02:52;4.82;;;2.80;;
66327;SDS011;53133;52.862;6.602;2022-07-18T08:05:19;5.45;;;3.03;;
66327;SDS011;53133;52.862;6.602;2022-07-18T08:07:45;5.85;;;3.13;;
66327;SDS011;53133;52.862;6.602;2022-07-18T08:10:10;10.60;;;3.60;;
66327;SDS011;53133;52.862;6.602;2022-07-18T08:12:36;7.88;;;3.35;;
66327;SDS011;53133;52.862;6.602;2022-07-18T08:15:02;9.60;;;3.30;;
66327;SDS011;53133;52.862;6.602;2022-07-18T08:17:28;7.70;;;3.03;;
66327;SDS011;53133;52.862;6.602;2022-07-18T08:19:54;9.60;;;3.25;;
66327;SDS011;53133;52.862;6.602;2022-07-18T08:22:19;5.32;;;2.92;;
66327;SDS011;53133;52.862;6.602;2022-07-18T08:24:45;5.72;;;3.17;;
66327;SDS011;53133;52.862;6.602;2022-07-18T08:27:10;5.85;;;2.90;;
66327;SDS011;53133;52.862;6.602;2022-07-18T08:29:36;9.43;;;3.17;;
66327;SDS011;53133;52.862;6.602;2022-07-18T08:32:02;8.75;;;2.95;;
66327;SDS011;53133;52.862;6.602;2022-07-18T08:34:27;7.88;;;3.00;;
66327;SDS011;53133;52.862;6.602;2022-07-18T08:36:53;6.60;;;3.25;;
66327;SDS011;53133;52.862;6.602;2022-07-18T08:39:19;8.85;;;3.08;;
66327;SDS011;53133;52.862;6.602;2022-07-18T08:41:44;4.90;;;3.17;;
66327;SDS011;53133;52.862;6.602;2022-07-18T08:44:14;5.93;;;2.80;;
66327;SDS011;53133;52.862;6.602;2022-07-18T08:46:40;4.82;;;2.50;;
66327;SDS011;53133;52.862;6.602;2022-07-18T08:49:12;7.25;;;2.47;;
66327;SDS011;53133;52.862;6.602;2022-07-18T08:51:39;6.85;;;2.35;;
66327;SDS011;53133;52.862;6.602;2022-07-18T08:54:05;5.07;;;2.50;;
66327;SDS011;53133;52.862;6.602;2022-07-18T08:56:30;7.50;;;2.40;;
66327;SDS011;53133;52.862;6.602;2022-07-18T08:58:56;5.43;;;2.20;;
66327;SDS011;53133;52.862;6.602;2022-07-18T09:01:22;4.43;;;2.10;;
66327;SDS011;53133;52.862;6.602;2022-07-18T09:03:47;6.82;;;2.25;;
66327;SDS011;53133;52.862;6.602;2022-07-18T09:06:45;5.18;;;2.03;;
66327;SDS011;53133;52.862;6.602;2022-07-18T09:09:16;7.30;;;2.55;;
66327;SDS011;53133;52.862;6.602;2022-07-18T09:11:55;5.68;;;2.40;;
66327;SDS011;53133;52.862;6.602;2022-07-18T09:14:34;6.13;;;2.10;;
66327;SDS011;53133;52.862;6.602;2022-07-18T09:19:32;8.75;;;2.15;;
66327;SDS011;53133;52.862;6.602;2022-07-18T09:22:10;9.10;;;2.25;;
66327;SDS011;53133;52.862;6.602;2022-07-18T09:24:49;4.72;;;2.35;;
66327;SDS011;53133;52.862;6.602;2022-07-18T09:27:22;6.63;;;2.20;;
66327;SDS011;53133;52.862;6.602;2022-07-18T09:30:18;4.88;;;2.30;;
66327;SDS011;53133;52.862;6.602;2022-07-18T09:35:31;5.63;;;2.17;;
66327;SDS011;53133;52.862;6.602;2022-07-18T09:38:00;3.88;;;1.83;;
66327;SDS011;53133;52.862;6.602;2022-07-18T09:40:34;5.50;;;1.85;;
66327;SDS011;53133;52.862;6.602;2022-07-18T09:43:08;2.95;;;2.00;;
66327;SDS011;53133;52.862;6.602;2022-07-18T09:45:46;7.53;;;2.05;;
66327;SDS011;53133;52.862;6.602;2022-07-18T09:48:19;5.47;;;1.90;;
66327;SDS011;53133;52.862;6.602;2022-07-18T09:50:50;3.50;;;2.05;;
66327;SDS011;53133;52.862;6.602;2022-07-18T09:53:27;6.75;;;1.88;;
66327;SDS011;53133;52.862;6.602;2022-07-18T09:55:57;6.85;;;2.25;;
66327;SDS011;53133;52.862;6.602;2022-07-18T09:58:24;5.85;;;2.40;;
66327;SDS011;53133;52.862;6.602;2022-07-18T10:00:51;6.82;;;2.50;;
66327;SDS011;53133;52.862;6.602;2022-07-18T10:03:18;4.75;;;2.03;;
66327;SDS011;53133;52.862;6.602;2022-07-18T10:05:45;7.00;;;2.33;;
66327;SDS011;53133;52.862;6.602;2022-07-18T10:08:15;3.50;;;1.95;;
66327;SDS011;53133;52.862;6.602;2022-07-18T10:10:44;4.60;;;1.90;;
66327;SDS011;53133;52.862;6.602;2022-07-18T10:13:14;5.88;;;2.20;;
66327;SDS011;53133;52.862;6.602;2022-07-18T10:15:42;7.82;;;2.63;;
66327;SDS011;53133;52.862;6.602;2022-07-18T10:18:10;3.55;;;2.00;;
66327;SDS011;53133;52.862;6.602;2022-07-18T10:26:14;6.05;;;2.20;;
66327;SDS011;53133;52.862;6.602;2022-07-18T10:31:21;5.35;;;2.63;;
66327;SDS011;53133;52.862;6.602;2022-07-18T10:33:48;9.07;;;2.75;;
66327;SDS011;53133;52.862;6.602;2022-07-18T10:36:18;6.90;;;2.67;;
66327;SDS011;53133;52.862;6.602;2022-07-18T10:44:31;5.30;;;2.38;;
66327;SDS011;53133;52.862;6.602;2022-07-18T10:57:34;4.95;;;2.45;;
66327;SDS011;53133;52.862;6.602;2022-07-18T11:02:34;9.73;;;2.60;;
66327;SDS011;53133;52.862;6.602;2022-07-18T11:18:24;6.00;;;2.50;;
66327;SDS011;53133;52.862;6.602;2022-07-18T11:20:50;4.32;;;2.75;;
66327;SDS011;53133;52.862;6.602;2022-07-18T11:23:23;6.00;;;2.95;;
66327;SDS011;53133;52.862;6.602;2022-07-18T11:25:52;7.38;;;2.80;;
66327;SDS011;53133;52.862;6.602;2022-07-18T11:28:22;4.25;;;2.60;;
66327;SDS011;53133;52.862;6.602;2022-07-18T11:30:58;6.45;;;2.92;;
66327;SDS011;53133;52.862;6.602;2022-07-18T11:33:26;5.18;;;3.03;;
66327;SDS011;53133;52.862;6.602;2022-07-18T11:36:06;4.97;;;2.55;;
66327;SDS011;53133;52.862;6.602;2022-07-18T11:38:51;3.60;;;2.60;;
66327;SDS011;53133;52.862;6.602;2022-07-18T11:41:18;6.55;;;2.97;;
66327;SDS011;53133;52.862;6.602;2022-07-18T11:43:44;6.88;;;2.80;;
66327;SDS011;53133;52.862;6.602;2022-07-18T11:46:11;5.22;;;2.72;;
66327;SDS011;53133;52.862;6.602;2022-07-18T11:48:39;3.70;;;2.78;;
66327;SDS011;53133;52.862;6.602;2022-07-18T11:51:09;7.40;;;3.38;;
66327;SDS011;53133;52.862;6.602;2022-07-18T11:53:49;6.70;;;2.85;;
66327;SDS011;53133;52.862;6.602;2022-07-18T11:56:16;5.05;;;2.97;;
66327;SDS011;53133;52.862;6.602;2022-07-18T11:58:43;3.20;;;2.70;;
66327;SDS011;53133;52.862;6.602;2022-07-18T12:01:10;4.80;;;3.13;;
66327;SDS011;53133;52.862;6.602;2022-07-18T12:03:37;4.32;;;2.90;;
66327;SDS011;53133;52.862;6.602;2022-07-18T12:06:12;5.88;;;2.92;;
66327;SDS011;53133;52.862;6.602;2022-07-18T12:08:41;4.90;;;2.80;;
66327;SDS011;53133;52.862;6.602;2022-07-18T12:16:22;4.82;;;3.30;;
66327;SDS011;53133;52.862;6.602;2022-07-18T12:18:59;6.25;;;3.03;;
66327;SDS011;53133;52.862;6.602;2022-07-18T12:21:52;6.18;;;3.40;;
66327;SDS011;53133;52.862;6.602;2022-07-18T12:24:22;8.70;;;3.63;;
66327;SDS011;53133;52.862;6.602;2022-07-18T12:29:55;9.05;;;4.07;;
66327;SDS011;53133;52.862;6.602;2022-07-18T12:35:02;6.50;;;3.65;;
66327;SDS011;53133;52.862;6.602;2022-07-18T12:37:29;4.90;;;3.55;;
66327;SDS011;53133;52.862;6.602;2022-07-18T12:39:55;6.68;;;3.80;;
66327;SDS011;53133;52.862;6.602;2022-07-18T12:44:58;5.68;;;3.72;;
66327;SDS011;53133;52.862;6.602;2022-07-18T12:47:24;5.88;;;3.65;;
66327;SDS011;53133;52.862;6.602;2022-07-18T12:49:50;7.07;;;3.50;;
66327;SDS011;53133;52.862;6.602;2022-07-18T12:52:17;11.55;;;3.45;;
66327;SDS011;53133;52.862;6.602;2022-07-18T12:54:43;4.38;;;3.30;;
66327;SDS011;53133;52.862;6.602;2022-07-18T12:57:09;4.97;;;3.00;;
66327;SDS011;53133;52.862;6.602;2022-07-18T12:59:34;5.45;;;3.17;;
66327;SDS011;53133;52.862;6.602;2022-07-18T13:02:00;5.07;;;3.70;;
66327;SDS011;53133;52.862;6.602;2022-07-18T13:04:26;8.50;;;3.05;;
66327;SDS011;53133;52.862;6.602;2022-07-18T13:06:51;6.22;;;3.20;;
66327;SDS011;53133;52.862;6.602;2022-07-18T13:09:17;4.93;;;3.30;;
66327;SDS011;53133;52.862;6.602;2022-07-18T13:11:42;4.93;;;3.33;;
66327;SDS011;53133;52.862;6.602;2022-07-18T13:14:12;5.00;;;3.45;;
66327;SDS011;53133;52.862;6.602;2022-07-18T13:16:38;7.07;;;3.83;;
66327;SDS011;53133;52.862;6.602;2022-07-18T13:19:03;5.10;;;3.30;;
66327;SDS011;53133;52.862;6.602;2022-07-18T13:21:29;5.05;;;3.15;;
66327;SDS011;53133;52.862;6.602;2022-07-18T13:23:55;6.97;;;3.08;;
66327;SDS011;53133;52.862;6.602;2022-07-18T13:26:20;3.78;;;3.00;;
66327;SDS011;53133;52.862;6.602;2022-07-18T13:28:46;7.05;;;3.22;;
66327;SDS011;53133;52.862;6.602;2022-07-18T13:31:11;5.57;;;3.35;;
66327;SDS011;53133;52.862;6.602;2022-07-18T13:33:37;6.55;;;3.20;;
66327;SDS011;53133;52.862;6.602;2022-07-18T13:36:02;7.03;;;3.72;;
66327;SDS011;53133;52.862;6.602;2022-07-18T13:38:28;5.47;;;3.28;;
66327;SDS011;53133;52.862;6.602;2022-07-18T13:40:54;6.53;;;3.28;;
66327;SDS011;53133;52.862;6.602;2022-07-18T13:43:19;6.53;;;3.38;;
66327;SDS011;53133;52.862;6.602;2022-07-18T13:45:45;6.78;;;3.33;;
66327;SDS011;53133;52.862;6.602;2022-07-18T13:48:10;4.72;;;3.08;;
66327;SDS011;53133;52.862;6.602;2022-07-18T13:50:36;6.30;;;3.70;;
66327;SDS011;53133;52.862;6.602;2022-07-18T13:53:02;5.38;;;3.00;;
66327;SDS011;53133;52.862;6.602;2022-07-18T13:55:27;5.80;;;2.92;;
66327;SDS011;53133;52.862;6.602;2022-07-18T13:57:53;6.45;;;3.15;;
66327;SDS011;53133;52.862;6.602;2022-07-18T14:00:18;4.25;;;3.05;;
66327;SDS011;53133;52.862;6.602;2022-07-18T14:02:44;6.20;;;3.45;;
66327;SDS011;53133;52.862;6.602;2022-07-18T14:05:10;5.07;;;3.20;;
66327;SDS011;53133;52.862;6.602;2022-07-18T14:07:35;4.57;;;3.00;;
66327;SDS011;53133;52.862;6.602;2022-07-18T14:10:01;4.60;;;3.10;;
66327;SDS011;53133;52.862;6.602;2022-07-18T14:12:27;5.20;;;3.40;;
66327;SDS011;53133;52.862;6.602;2022-07-18T14:14:52;5.38;;;3.22;;
66327;SDS011;53133;52.862;6.602;2022-07-18T14:17:18;4.97;;;3.15;;
66327;SDS011;53133;52.862;6.602;2022-07-18T14:19:44;4.80;;;2.83;;
66327;SDS011;53133;52.862;6.602;2022-07-18T14:22:10;4.53;;;2.60;;
66327;SDS011;53133;52.862;6.602;2022-07-18T14:24:37;3.97;;;2.95;;
66327;SDS011;53133;52.862;6.602;2022-07-18T14:27:02;4.53;;;3.15;;
66327;SDS011;53133;52.862;6.602;2022-07-18T14:29:28;3.58;;;2.60;;
66327;SDS011;53133;52.862;6.602;2022-07-18T14:31:53;6.53;;;2.72;;
66327;SDS011;53133;52.862;6.602;2022-07-18T14:34:19;4.00;;;3.05;;
66327;SDS011;53133;52.862;6.602;2022-07-18T14:36:44;5.78;;;2.85;;
66327;SDS011;53133;52.862;6.602;2022-07-18T14:39:10;5.25;;;2.70;;
66327;SDS011;53133;52.862;6.602;2022-07-18T14:41:36;7.55;;;3.10;;
66327;SDS011;53133;52.862;6.602;2022-07-18T14:44:01;5.55;;;2.90;;
66327;SDS011;53133;52.862;6.602;2022-07-18T14:46:27;4.82;;;2.90;;
66327;SDS011;53133;52.862;6.602;2022-07-18T14:48:52;4.90;;;3.10;;
66327;SDS011;53133;52.862;6.602;2022-07-18T14:51:18;4.88;;;3.25;;
66327;SDS011;53133;52.862;6.602;2022-07-18T14:53:44;3.95;;;2.90;;
66327;SDS011;53133;52.862;6.602;2022-07-18T14:56:10;4.68;;;3.03;;
66327;SDS011;53133;52.862;6.602;2022-07-18T14:58:35;5.10;;;2.90;;
66327;SDS011;53133;52.862;6.602;2022-07-18T15:01:01;5.90;;;2.80;;
66327;SDS011;53133;52.862;6.602;2022-07-18T15:03:27;6.43;;;2.70;;
66327;SDS011;53133;52.862;6.602;2022-07-18T15:05:52;4.85;;;2.90;;
66327;SDS011;53133;52.862;6.602;2022-07-18T15:08:18;4.53;;;2.70;;
66327;SDS011;53133;52.862;6.602;2022-07-18T15:10:43;4.95;;;2.65;;
66327;SDS011;53133;52.862;6.602;2022-07-18T15:13:09;3.13;;;2.42;;
66327;SDS011;53133;52.862;6.602;2022-07-18T15:15:34;4.32;;;2.65;;
66327;SDS011;53133;52.862;6.602;2022-07-18T15:18:00;5.00;;;2.30;;
66327;SDS011;53133;52.862;6.602;2022-07-18T15:20:26;7.15;;;2.70;;
66327;SDS011;53133;52.862;6.602;2022-07-18T15:22:51;4.63;;;2.70;;
66327;SDS011;53133;52.862;6.602;2022-07-18T15:25:17;4.57;;;2.80;;
66327;SDS011;53133;52.862;6.602;2022-07-18T15:27:43;4.07;;;2.65;;
66327;SDS011;53133;52.862;6.602;2022-07-18T15:30:09;6.68;;;2.63;;
66327;SDS011;53133;52.862;6.602;2022-07-18T15:32:34;6.85;;;2.50;;
66327;SDS011;53133;52.862;6.602;2022-07-18T15:35:00;4.95;;;2.92;;
66327;SDS011;53133;52.862;6.602;2022-07-18T15:37:25;6.28;;;2.83;;
66327;SDS011;53133;52.862;6.602;2022-07-18T15:39:51;4.68;;;2.60;;
66327;SDS011;53133;52.862;6.602;2022-07-18T15:42:16;5.22;;;2.50;;